Time;durP1;ratioP1;P1;durP2;ratioP2;P2;SDS_P1;SDS_P2;PMS_P1;PMS_P2;Temp;Humidity;BMP_temperature;BMP_pressure;BME280_temperature;BME280_humidity;BME280_pressure;Samples;Min_cycle;Max_cycle;Signal;HPM_P1;HPM_P2
2021/12/05 00:18:50;;;;;;;8.10;2.80;;;3.80;99.90;;;;;;5056362;28;20210;-77
2021/12/05 00:24:09;;;;;;;10.70;2.90;;;3.70;99.90;;;;;;5055338;28;20184;-77
2021/12/05 00:26:36;;;;;;;8.17;2.30;;;3.70;99.90;;;;;;5055261;28;20191;-77
2021/12/05 00:31:48;;;;;;;10.13;3.00;;;3.80;99.90;;;;;;5055988;28;20184;-77
2021/12/05 00:59:59;;;;;;;6.77;2.37;;;4.00;99.90;;;;;;5055661;28;20262;-77
2021/12/05 01:02:40;;;;;;;10.80;2.67;;;3.90;99.90;;;;;;5054701;28;20159;-77
2021/12/05 01:08:26;;;;;;;15.80;2.97;;;3.90;99.90;;;;;;5054407;28;20168;-77
2021/12/05 01:13:55;;;;;;;15.70;2.30;;;4.00;99.90;;;;;;5025346;28;20767;-77
2021/12/05 01:16:22;;;;;;;11.57;2.30;;;4.00;99.90;;;;;;5054285;28;20199;-77
2021/12/05 01:18:48;;;;;;;9.57;2.27;;;4.00;99.90;;;;;;5053949;28;20633;-76
2021/12/05 01:21:17;;;;;;;13.23;2.20;;;4.00;99.90;;;;;;5053841;28;20168;-77
2021/12/05 01:26:25;;;;;;;12.77;2.23;;;4.00;99.90;;;;;;5054123;28;20199;-77
2021/12/05 01:31:48;;;;;;;14.77;2.90;;;4.00;99.90;;;;;;5053770;28;20175;-77
2021/12/05 01:51:16;;;;;;;10.63;2.30;;;4.10;99.90;;;;;;5053518;28;20163;-77
2021/12/05 01:53:55;;;;;;;15.97;2.70;;;4.10;99.90;;;;;;5053170;28;20271;-76
2021/12/05 01:59:24;;;;;;;13.90;2.53;;;4.10;99.90;;;;;;5054058;28;20206;-77
2021/12/05 02:07:58;;;;;;;10.27;2.43;;;4.10;99.90;;;;;;5053501;28;20170;-77
2021/12/05 02:10:51;;;;;;;10.23;2.63;;;4.10;99.90;;;;;;5053128;28;20240;-77
2021/12/05 02:16:18;;;;;;;14.23;2.07;;;4.10;99.90;;;;;;5053056;28;20575;-77
2021/12/05 02:32:46;;;;;;;14.33;2.97;;;4.00;99.90;;;;;;5053568;28;20184;-77
2021/12/05 02:35:28;;;;;;;12.57;2.73;;;4.00;99.90;;;;;;5052806;28;20211;-77
2021/12/05 02:40:58;;;;;;;11.47;2.07;;;3.90;99.90;;;;;;5053264;28;20201;-76
2021/12/05 02:44:00;;;;;;;11.53;2.70;;;3.90;99.90;;;;;;5051705;28;20172;-77
2021/12/05 02:46:21;;;;;;;10.40;2.37;;;3.90;99.90;;;;;;5050453;28;20309;-76
2021/12/05 02:48:47;;;;;;;15.63;2.60;;;3.90;99.90;;;;;;5056834;28;20489;-76
2021/12/05 02:51:18;;;;;;;17.10;3.37;;;3.90;99.90;;;;;;5056534;28;20262;-77
2021/12/05 02:53:51;;;;;;;12.53;2.60;;;4.00;99.90;;;;;;5056800;28;20244;-77
2021/12/05 02:56:17;;;;;;;11.47;2.50;;;3.90;99.90;;;;;;5056792;28;20192;-77
2021/12/05 02:58:47;;;;;;;12.17;2.40;;;4.00;99.90;;;;;;5056798;28;20198;-77
2021/12/05 03:01:30;;;;;;;10.03;2.70;;;4.00;99.90;;;;;;5055166;28;20219;-77
2021/12/05 03:03:57;;;;;;;10.93;2.23;;;4.00;99.90;;;;;;5056819;28;20156;-76
2021/12/05 03:06:27;;;;;;;16.13;2.57;;;4.00;99.90;;;;;;5055148;28;20718;-77
2021/12/05 03:09:13;;;;;;;12.30;2.40;;;4.00;99.90;;;;;;5055396;28;20614;-76
2021/12/05 03:11:39;;;;;;;14.90;2.73;;;4.00;99.90;;;;;;5056211;28;20156;-77
2021/12/05 03:14:05;;;;;;;14.37;2.50;;;4.00;99.90;;;;;;5054956;28;20215;-77
2021/12/05 03:16:33;;;;;;;13.07;2.73;;;4.00;99.90;;;;;;5055396;28;20283;-77
2021/12/05 03:18:59;;;;;;;12.10;2.47;;;4.00;99.90;;;;;;5055269;28;20240;-77
2021/12/05 03:21:24;;;;;;;15.97;2.20;;;4.00;99.90;;;;;;5055906;28;20629;-77
2021/12/05 03:23:51;;;;;;;5.37;1.87;;;4.00;99.90;;;;;;5055965;28;20183;-77
2021/12/05 03:26:22;;;;;;;10.77;2.40;;;4.00;99.90;;;;;;5056023;28;20241;-77
2021/12/05 03:28:50;;;;;;;8.90;1.97;;;4.00;99.90;;;;;;5056558;28;20202;-76
2021/12/05 03:31:17;;;;;;;9.10;2.47;;;4.00;99.90;;;;;;5055869;28;20264;-77
2021/12/05 03:33:43;;;;;;;12.43;2.70;;;4.00;99.90;;;;;;5054643;28;20207;-77
2021/12/05 03:36:10;;;;;;;9.97;2.20;;;4.00;99.90;;;;;;5055981;28;20568;-77
2021/12/05 03:38:37;;;;;;;11.13;2.50;;;4.00;99.90;;;;;;5055866;28;20175;-77
2021/12/05 03:41:03;;;;;;;16.43;2.67;;;4.00;99.90;;;;;;5054896;28;20171;-77
2021/12/05 03:43:30;;;;;;;7.57;2.10;;;4.00;99.90;;;;;;5054511;28;20172;-77
2021/12/05 03:45:58;;;;;;;7.17;2.70;;;4.00;99.90;;;;;;5055356;28;20217;-77
2021/12/05 03:48:26;;;;;;;9.43;2.30;;;4.00;99.90;;;;;;5055405;28;20634;-77
2021/12/05 03:50:53;;;;;;;20.70;3.50;;;3.90;99.90;;;;;;5055980;28;20195;-77
2021/12/05 03:53:19;;;;;;;9.83;2.33;;;3.90;99.90;;;;;;5055634;28;20183;-77
2021/12/05 03:55:49;;;;;;;10.33;2.50;;;3.90;99.90;;;;;;5054066;28;20249;-77
2021/12/05 03:58:15;;;;;;;12.30;2.57;;;3.90;99.90;;;;;;5053078;28;20179;-77
2021/12/05 04:00:43;;;;;;;15.47;2.40;;;3.80;99.90;;;;;;5054236;28;20634;-77
2021/12/05 04:03:14;;;;;;;12.13;2.37;;;3.80;99.90;;;;;;5055416;28;20171;-77
2021/12/05 04:05:40;;;;;;;11.30;2.20;;;3.80;99.90;;;;;;5054158;28;20200;-78
2021/12/05 04:08:10;;;;;;;9.93;2.63;;;3.80;99.90;;;;;;5053825;28;20521;-76
2021/12/05 04:10:38;;;;;;;6.90;2.60;;;3.70;99.90;;;;;;5055379;28;20167;-77
2021/12/05 04:13:04;;;;;;;7.20;2.23;;;3.70;99.90;;;;;;5055080;28;20545;-77
2021/12/05 04:15:30;;;;;;;6.13;2.23;;;3.70;99.90;;;;;;5054790;28;20207;-77
2021/12/05 04:17:55;;;;;;;6.00;2.00;;;3.70;99.90;;;;;;5053620;28;20581;-77
2021/12/05 04:20:22;;;;;;;9.40;2.33;;;3.60;99.90;;;;;;5054919;28;20198;-77
2021/12/05 04:22:49;;;;;;;8.03;2.33;;;3.60;99.90;;;;;;5054911;28;20172;-76
2021/12/05 04:25:16;;;;;;;10.00;2.07;;;3.60;99.90;;;;;;5053919;28;20195;-77
2021/12/05 04:27:45;;;;;;;8.63;3.17;;;3.60;99.90;;;;;;5053364;28;20180;-77
2021/12/05 04:30:13;;;;;;;12.47;2.10;;;3.60;99.90;;;;;;5053649;28;20171;-77
2021/12/05 04:32:38;;;;;;;14.00;2.30;;;3.60;99.90;;;;;;5053509;28;20186;-77
2021/12/05 04:35:05;;;;;;;10.70;2.60;;;3.60;99.90;;;;;;5054385;28;20195;-78
2021/12/05 04:37:30;;;;;;;7.70;1.70;;;3.60;99.90;;;;;;5054667;28;20520;-76
2021/12/05 04:39:56;;;;;;;6.07;2.20;;;3.60;99.90;;;;;;5054755;28;20171;-77
2021/12/05 04:42:22;;;;;;;13.33;2.00;;;3.60;99.90;;;;;;5054425;28;20239;-77
2021/12/05 04:44:48;;;;;;;5.20;1.83;;;3.60;99.90;;;;;;5054373;28;20175;-76
2021/12/05 04:47:13;;;;;;;5.87;2.13;;;3.60;99.90;;;;;;5048487;22;20221;-76
2021/12/05 04:49:40;;;;;;;15.53;2.23;;;3.60;99.90;;;;;;5011534;28;20658;-76
2021/12/05 04:52:08;;;;;;;11.20;1.80;;;3.60;99.90;;;;;;5013875;28;20176;-76
2021/12/05 04:54:34;;;;;;;8.37;2.33;;;3.60;99.90;;;;;;5013811;28;20197;-76
2021/12/05 04:56:59;;;;;;;14.50;2.90;;;3.60;99.90;;;;;;5014051;28;20735;-76
2021/12/05 04:59:27;;;;;;;9.67;1.77;;;3.70;99.90;;;;;;5013782;28;20192;-76
2021/12/05 05:01:57;;;;;;;8.97;1.90;;;3.60;99.90;;;;;;5013754;28;20161;-76
2021/12/05 05:06:50;;;;;;;14.43;2.40;;;3.60;99.90;;;;;;5013906;28;20199;-76
2021/12/05 05:09:15;;;;;;;4.33;2.07;;;3.70;99.90;;;;;;5028768;28;20177;-76
2021/12/05 05:11:41;;;;;;;8.80;1.93;;;3.60;99.90;;;;;;5028779;28;20176;-76
2021/12/05 05:14:08;;;;;;;10.90;2.17;;;3.60;99.90;;;;;;5012294;28;20564;-76
2021/12/05 05:16:34;;;;;;;8.63;2.47;;;3.60;99.90;;;;;;5013489;28;20563;-76
2021/12/05 05:19:00;;;;;;;9.50;1.87;;;3.60;99.90;;;;;;5013798;28;20173;-76
2021/12/05 05:24:13;;;;;;;7.63;2.00;;;3.60;99.90;;;;;;5013751;28;20264;-76
2021/12/05 05:43:02;;;;;;;10.93;2.10;;;3.60;99.90;;;;;;5013140;28;20180;-76
2021/12/05 05:45:46;;;;;;;8.37;1.90;;;3.60;99.90;;;;;;5013121;28;20204;-76
2021/12/05 05:50:38;;;;;;;7.87;1.60;;;3.60;99.90;;;;;;5013495;28;20246;-76
2021/12/05 05:53:04;;;;;;;8.03;2.27;;;3.60;99.90;;;;;;5013383;28;20180;-76
2021/12/05 05:55:30;;;;;;;11.77;2.10;;;3.60;99.90;;;;;;5012984;28;20201;-75
2021/12/05 06:00:35;;;;;;;5.80;2.40;;;3.60;99.90;;;;;;5013386;28;20176;-76
2021/12/05 06:03:21;;;;;;;9.70;2.00;;;3.60;99.90;;;;;;5011808;28;20584;-76
2021/12/05 06:06:06;;;;;;;9.23;2.40;;;3.60;99.90;;;;;;5028191;28;20196;-75
2021/12/05 06:08:33;;;;;;;8.43;1.57;;;3.60;99.90;;;;;;5013289;28;20500;-76
2021/12/05 06:11:03;;;;;;;9.23;2.10;;;3.50;99.90;;;;;;5013147;28;20173;-76
2021/12/05 06:13:30;;;;;;;9.87;1.40;;;3.60;99.90;;;;;;5012810;28;20219;-76
2021/12/05 06:15:57;;;;;;;4.57;1.53;;;3.60;99.90;;;;;;5011553;28;20284;-76
2021/12/05 06:18:24;;;;;;;7.20;1.87;;;3.60;99.90;;;;;;5012873;28;20169;-76
2021/12/05 06:20:52;;;;;;;7.83;1.60;;;3.60;99.90;;;;;;5013122;28;20165;-75
2021/12/05 06:23:18;;;;;;;10.63;1.80;;;3.60;99.90;;;;;;5016924;28;20201;-76
2021/12/05 06:25:48;;;;;;;2.80;1.10;;;3.60;99.90;;;;;;5016624;28;20717;-76
2021/12/05 06:28:15;;;;;;;5.03;1.50;;;3.70;99.90;;;;;;5016840;28;20224;-76
2021/12/05 06:46:25;;;;;;;10.77;2.50;;;3.80;99.90;;;;;;5016322;28;20247;-76
2021/12/05 06:48:51;;;;;;;6.07;1.73;;;3.80;99.90;;;;;;5016245;28;20157;-76
2021/12/05 06:51:23;;;;;;;5.43;1.70;;;3.80;99.90;;;;;;5031352;28;20177;-76
2021/12/05 06:53:49;;;;;;;5.63;1.63;;;3.80;99.90;;;;;;5031361;28;20196;-76
2021/12/05 06:56:15;;;;;;;8.60;2.20;;;3.80;99.90;;;;;;5031211;28;20314;-76
2021/12/05 06:58:41;;;;;;;5.97;1.80;;;3.90;99.90;;;;;;5016120;28;20299;-76
2021/12/05 07:01:10;;;;;;;7.67;1.57;;;3.80;99.90;;;;;;5016034;28;20269;-76
2021/12/05 07:03:39;;;;;;;5.10;1.60;;;3.80;99.90;;;;;;5016002;28;20260;-76
2021/12/05 07:06:10;;;;;;;3.73;1.33;;;3.90;99.90;;;;;;5016039;28;20193;-75
2021/12/05 07:08:39;;;;;;;5.47;1.60;;;3.80;99.90;;;;;;5014679;28;20203;-76
2021/12/05 07:11:20;;;;;;;2.73;1.53;;;3.90;99.90;;;;;;5014646;28;20177;-77
2021/12/05 07:21:54;;;;;;;9.43;1.90;;;3.90;99.90;;;;;;5006258;28;20166;-75
2021/12/05 07:24:45;;;;;;;9.57;2.10;;;3.90;99.90;;;;;;5004623;28;20604;-76
2021/12/05 07:40:23;;;;;;;6.43;1.60;;;3.90;99.90;;;;;;5006023;28;20633;-76
2021/12/05 07:41:11;;;;;;;6.43;1.80;;;4.00;99.90;;;;;;4996088;28;20188;-77
2021/12/05 07:43:38;;;;;;;6.40;1.50;;;4.00;99.90;;;;;;5011210;28;20189;-77
2021/12/05 07:46:06;;;;;;;6.13;1.70;;;4.00;99.90;;;;;;5010780;28;20731;-77
2021/12/05 07:48:35;;;;;;;6.80;1.47;;;4.00;99.90;;;;;;4995995;28;20177;-77
2021/12/05 07:54:02;;;;;;;6.87;1.37;;;4.10;99.90;;;;;;4996543;28;20265;-77
2021/12/05 07:56:52;;;;;;;4.33;1.50;;;4.10;99.90;;;;;;4995631;28;20192;-77
2021/12/05 08:15:46;;;;;;;6.90;1.60;;;4.20;99.90;;;;;;4996901;28;20220;-77
2021/12/05 08:18:12;;;;;;;6.47;2.00;;;4.20;99.90;;;;;;4997856;28;20169;-78
2021/12/05 08:20:41;;;;;;;5.57;1.73;;;4.20;99.90;;;;;;5012834;28;20185;-78
2021/12/05 08:23:08;;;;;;;7.07;1.87;;;4.20;99.90;;;;;;4998227;28;20275;-78
2021/12/05 08:25:38;;;;;;;6.27;2.03;;;4.20;99.90;;;;;;4997680;28;20631;-78
2021/12/05 08:30:43;;;;;;;7.03;1.40;;;4.30;99.90;;;;;;4997610;28;20162;-78
2021/12/05 08:33:19;;;;;;;8.57;1.70;;;4.20;99.90;;;;;;4997337;28;20177;-78
2021/12/05 08:44:27;;;;;;;3.53;2.00;;;4.40;99.90;;;;;;4997171;28;20150;-77
2021/12/05 09:20:09;;;;;;;5.70;1.93;;;4.40;99.90;;;;;;4996225;28;20262;-77
2021/12/05 09:30:48;;;;;;;6.47;2.27;;;4.50;99.90;;;;;;4995193;28;20190;-77
2021/12/05 10:06:52;;;;;;;9.10;2.70;;;4.70;99.90;;;;;;4997214;28;20665;-77
2021/12/05 10:15:14;;;;;;;8.80;2.43;;;4.70;99.90;;;;;;4997643;28;20610;-77
2021/12/05 10:38:10;;;;;;;5.90;2.37;;;4.80;99.90;;;;;;4997623;28;20169;-76
2021/12/05 10:41:02;;;;;;;4.03;1.87;;;4.90;99.90;;;;;;5011900;28;20228;-77
2021/12/05 10:43:29;;;;;;;4.40;1.90;;;4.90;99.90;;;;;;5011846;28;20174;-77
2021/12/05 10:46:03;;;;;;;3.73;2.20;;;4.90;99.90;;;;;;4997768;28;20305;-76
2021/12/05 10:48:36;;;;;;;4.20;1.97;;;4.90;99.90;;;;;;5023539;23;20228;-78
2021/12/05 10:51:05;;;;;;;5.13;2.37;;;4.90;99.90;;;;;;5031461;28;20188;-78
2021/12/05 10:53:45;;;;;;;5.43;2.20;;;5.00;99.90;;;;;;5016025;28;20177;-77
2021/12/05 10:56:22;;;;;;;6.20;2.40;;;5.00;99.90;;;;;;5016140;28;20643;-78
2021/12/05 10:59:10;;;;;;;5.07;2.00;;;5.00;99.90;;;;;;5016126;28;20201;-77
2021/12/05 11:01:53;;;;;;;6.03;2.40;;;5.10;99.90;;;;;;5014856;28;20169;-77
2021/12/05 11:04:26;;;;;;;7.97;1.93;;;5.10;99.90;;;;;;5016055;28;20574;-77
2021/12/05 11:07:05;;;;;;;5.60;2.00;;;5.20;99.90;;;;;;5015582;28;20204;-78
2021/12/05 11:09:42;;;;;;;4.90;1.93;;;5.20;99.90;;;;;;5016228;28;20161;-78
2021/12/05 11:12:16;;;;;;;6.77;2.20;;;5.30;99.90;;;;;;5014679;28;20165;-78
2021/12/05 11:14:45;;;;;;;4.27;2.10;;;5.30;99.90;;;;;;5014508;28;20216;-78
2021/12/05 11:17:23;;;;;;;3.93;2.00;;;5.30;99.90;;;;;;5014424;28;20196;-78
2021/12/05 11:19:55;;;;;;;5.97;2.00;;;5.30;99.90;;;;;;5013708;28;20209;-77
2021/12/05 11:22:27;;;;;;;6.00;2.37;;;5.40;99.90;;;;;;5015610;28;20173;-78
2021/12/05 11:24:59;;;;;;;5.73;1.73;;;5.40;99.90;;;;;;5015540;28;20158;-77
2021/12/05 11:27:34;;;;;;;3.43;1.90;;;5.40;99.90;;;;;;5015619;28;20284;-77
2021/12/05 11:30:18;;;;;;;2.80;1.60;;;5.40;99.90;;;;;;5015893;28;20599;-78
2021/12/05 11:33:03;;;;;;;5.73;1.60;;;5.40;99.90;;;;;;5014751;28;20234;-78
2021/12/05 11:35:37;;;;;;;4.77;1.90;;;5.40;99.90;;;;;;5015437;28;20268;-78
2021/12/05 11:38:20;;;;;;;4.13;1.70;;;5.40;99.90;;;;;;5013988;28;20196;-78
2021/12/05 11:40:48;;;;;;;4.73;1.60;;;5.40;99.90;;;;;;5017697;28;20181;-78
2021/12/05 11:43:24;;;;;;;3.07;1.63;;;5.40;99.90;;;;;;5017331;28;20222;-77
2021/12/05 11:46:08;;;;;;;8.03;2.00;;;5.50;99.90;;;;;;5015516;28;20218;-77
2021/12/05 11:48:46;;;;;;;4.20;1.87;;;5.60;99.90;;;;;;5013714;28;20216;-77
2021/12/05 11:51:33;;;;;;;5.67;1.63;;;5.60;99.90;;;;;;5015182;28;20169;-77
2021/12/05 11:54:11;;;;;;;8.70;1.90;;;5.70;99.90;;;;;;5015311;28;20162;-77
2021/12/05 11:56:54;;;;;;;4.77;1.90;;;5.70;99.90;;;;;;5015035;28;20172;-77
2021/12/05 11:59:22;;;;;;;4.50;1.80;;;5.80;99.90;;;;;;5015030;28;20150;-77
2021/12/05 12:02:06;;;;;;;2.20;1.50;;;5.80;99.90;;;;;;5014970;28;20248;-77
2021/12/05 12:04:51;;;;;;;3.70;1.97;;;5.90;99.90;;;;;;5014919;28;20161;-78
2021/12/05 12:07:36;;;;;;;4.07;1.60;;;5.90;99.90;;;;;;5013507;28;20667;-78
2021/12/05 12:10:15;;;;;;;3.57;1.50;;;6.00;99.90;;;;;;5015077;28;20211;-77
2021/12/05 12:12:47;;;;;;;2.57;1.53;;;6.00;99.90;;;;;;5013461;28;20177;-77
2021/12/05 12:15:14;;;;;;;4.50;1.60;;;6.00;99.90;;;;;;5013405;28;20243;-77
2021/12/05 12:17:41;;;;;;;2.73;1.60;;;6.00;99.90;;;;;;5014569;28;20188;-77
2021/12/05 12:20:11;;;;;;;2.20;1.40;;;6.00;99.90;;;;;;5013925;28;20173;-77
2021/12/05 12:22:37;;;;;;;3.30;1.70;;;6.00;99.90;;;;;;5015057;28;20174;-77
2021/12/05 12:25:09;;;;;;;4.63;1.43;;;6.00;99.90;;;;;;5014518;28;20195;-77
2021/12/05 12:27:35;;;;;;;3.10;1.67;;;6.00;99.90;;;;;;5014428;28;20221;-77
2021/12/05 12:30:08;;;;;;;6.77;3.50;;;6.00;99.90;;;;;;5014395;28;20196;-77
2021/12/05 12:32:38;;;;;;;10.27;5.13;;;6.00;99.90;;;;;;5014400;28;20157;-77
2021/12/05 12:35:11;;;;;;;7.43;3.07;;;6.00;99.90;;;;;;5014526;28;20189;-78
2021/12/05 12:37:57;;;;;;;4.33;1.80;;;6.00;99.90;;;;;;5014267;28;20570;-78
2021/12/05 12:40:33;;;;;;;5.13;1.50;;;6.10;99.90;;;;;;5014229;28;20226;-77
2021/12/05 12:42:59;;;;;;;4.27;1.70;;;6.10;99.90;;;;;;5014198;28;20172;-77
2021/12/05 12:45:24;;;;;;;4.60;1.43;;;6.10;99.90;;;;;;5014103;28;20169;-77
2021/12/05 12:47:58;;;;;;;7.40;1.73;;;6.10;99.90;;;;;;5012839;28;20216;-76
2021/12/05 12:50:36;;;;;;;6.60;1.87;;;6.10;99.90;;;;;;5014041;28;20173;-77
2021/12/05 12:53:15;;;;;;;2.87;1.37;;;6.10;99.90;;;;;;5012802;28;20177;-77
2021/12/05 12:55:52;;;;;;;4.60;1.67;;;6.20;99.90;;;;;;5014376;28;20185;-78
2021/12/05 12:58:43;;;;;;;3.73;1.30;;;6.10;99.90;;;;;;5014000;28;20280;-76
2021/12/05 13:01:30;;;;;;;3.10;1.60;;;6.10;99.90;;;;;;5014163;28;20169;-76
2021/12/05 13:10:08;;;;;;;4.37;1.60;;;6.10;99.90;;;;;;5013783;28;20160;-76
2021/12/05 13:12:44;;;;;;;5.57;2.03;;;6.00;99.90;;;;;;5013742;28;20152;-77
2021/12/05 13:15:10;;;;;;;2.33;1.17;;;6.00;99.90;;;;;;5014255;28;20556;-76
2021/12/05 13:17:44;;;;;;;3.70;1.30;;;6.00;99.90;;;;;;5013536;28;20193;-77
2021/12/05 13:20:13;;;;;;;2.20;1.33;;;6.00;99.90;;;;;;5013567;28;20164;-77
2021/12/05 13:23:07;;;;;;;2.83;1.60;;;6.00;99.90;;;;;;5013485;28;20165;-76
2021/12/05 13:25:56;;;;;;;2.33;1.27;;;6.00;99.90;;;;;;5013506;28;20550;-76
2021/12/05 13:28:31;;;;;;;4.00;1.43;;;5.90;99.90;;;;;;5013096;28;20205;-77
2021/12/05 13:30:57;;;;;;;3.60;1.30;;;5.90;99.90;;;;;;5012154;28;20176;-76
2021/12/05 13:33:28;;;;;;;3.00;1.40;;;5.90;99.90;;;;;;5013343;28;20185;-76
2021/12/05 13:35:58;;;;;;;4.63;1.40;;;5.90;99.90;;;;;;5013473;28;20271;-76
2021/12/05 13:38:40;;;;;;;6.63;1.20;;;5.90;99.90;;;;;;5013239;28;20563;-76
2021/12/05 13:41:16;;;;;;;2.37;1.23;;;5.90;99.90;;;;;;5013581;28;20522;-76
2021/12/05 13:44:03;;;;;;;4.87;1.47;;;5.90;99.90;;;;;;5013272;28;20161;-76
2021/12/05 13:46:37;;;;;;;7.63;1.60;;;5.90;99.90;;;;;;5013072;28;20261;-76
2021/12/05 13:49:36;;;;;;;1.77;1.10;;;6.00;99.90;;;;;;5011707;28;20301;-76
2021/12/05 13:52:30;;;;;;;2.27;1.27;;;5.90;99.90;;;;;;5011975;28;20588;-78
2021/12/05 13:55:34;;;;;;;2.70;1.30;;;6.00;99.90;;;;;;5009987;28;20359;-77
2021/12/05 13:58:22;;;;;;;2.53;1.23;;;6.00;99.90;;;;;;5013115;28;20186;-77
2021/12/05 14:01:10;;;;;;;3.50;1.37;;;6.00;99.90;;;;;;5013676;28;20619;-77
2021/12/05 14:03:42;;;;;;;1.67;1.07;;;6.00;99.90;;;;;;5011816;28;20179;-77
2021/12/05 14:06:32;;;;;;;2.93;1.07;;;5.90;99.90;;;;;;5011783;28;20532;-77
2021/12/05 14:09:06;;;;;;;2.40;1.20;;;6.00;99.90;;;;;;5013540;28;20197;-77
2021/12/05 14:11:37;;;;;;;1.83;1.07;;;6.00;99.90;;;;;;5013010;28;20255;-76
2021/12/05 14:14:06;;;;;;;2.13;1.53;;;6.00;99.90;;;;;;5011731;28;20177;-77
2021/12/05 14:16:35;;;;;;;1.73;1.03;;;6.00;99.90;;;;;;5012939;28;20193;-77
2021/12/05 14:19:02;;;;;;;3.47;1.40;;;6.00;99.90;;;;;;5013229;28;20197;-77
2021/12/05 14:21:27;;;;;;;6.77;1.30;;;6.00;99.90;;;;;;5012961;28;20180;-77
2021/12/05 14:23:57;;;;;;;4.17;1.13;;;6.00;99.90;;;;;;5012802;28;20255;-77
2021/12/05 14:26:25;;;;;;;1.87;1.10;;;6.00;99.90;;;;;;5013086;28;20199;-77
2021/12/05 14:28:57;;;;;;;2.70;1.13;;;6.00;99.90;;;;;;5013029;28;20185;-77
2021/12/05 14:31:25;;;;;;;3.07;1.50;;;6.00;99.90;;;;;;5012827;28;20175;-77
2021/12/05 14:33:53;;;;;;;2.90;1.37;;;6.00;99.90;;;;;;5012968;28;20650;-77
2021/12/05 14:36:29;;;;;;;2.47;1.23;;;6.00;99.90;;;;;;5012789;28;20181;-76
2021/12/05 14:39:27;;;;;;;1.57;1.10;;;6.00;99.90;;;;;;5012977;28;20651;-77
2021/12/05 14:41:59;;;;;;;2.50;1.20;;;6.00;99.90;;;;;;5013209;28;20237;-77
2021/12/05 14:44:25;;;;;;;2.57;1.27;;;5.90;99.90;;;;;;5015203;28;20175;-77
2021/12/05 14:46:59;;;;;;;2.10;1.40;;;5.90;99.90;;;;;;5016605;28;20204;-77
2021/12/05 14:49:30;;;;;;;2.83;1.30;;;5.90;99.90;;;;;;5015217;28;20188;-78
2021/12/05 14:51:56;;;;;;;2.33;1.53;;;5.90;99.90;;;;;;5015017;28;20261;-77
2021/12/05 14:54:30;;;;;;;4.23;1.20;;;5.90;99.90;;;;;;5016440;28;20279;-76
2021/12/05 14:56:56;;;;;;;2.53;1.33;;;5.90;99.90;;;;;;5016303;28;20167;-77
2021/12/05 14:59:22;;;;;;;4.03;1.30;;;5.90;99.90;;;;;;5016096;28;20169;-77
2021/12/05 15:01:53;;;;;;;1.80;1.20;;;6.00;99.90;;;;;;5014826;28;20566;-76
2021/12/05 15:04:26;;;;;;;1.73;1.00;;;5.90;99.90;;;;;;5016624;28;20168;-76
2021/12/05 15:06:52;;;;;;;5.03;1.40;;;5.90;99.90;;;;;;5015965;28;20157;-77
2021/12/05 15:09:35;;;;;;;3.53;1.30;;;5.90;99.90;;;;;;5014704;28;20176;-76
2021/12/05 15:12:08;;;;;;;3.70;1.23;;;5.90;99.90;;;;;;5015930;28;20161;-76
2021/12/05 15:14:35;;;;;;;0.77;0.70;;;5.90;99.90;;;;;;5014530;28;20198;-76
2021/12/05 15:17:08;;;;;;;1.60;1.10;;;5.90;99.90;;;;;;5015634;28;20200;-77
2021/12/05 15:19:38;;;;;;;3.70;1.30;;;5.90;99.90;;;;;;5015814;28;20240;-76
2021/12/05 15:22:04;;;;;;;1.60;1.10;;;5.80;99.90;;;;;;5015705;28;20173;-77
2021/12/05 15:24:30;;;;;;;1.77;0.80;;;5.80;99.90;;;;;;5015651;28;20191;-77
2021/12/05 15:26:58;;;;;;;4.83;1.10;;;5.70;99.90;;;;;;5015845;28;20169;-79
2021/12/05 15:29:24;;;;;;;2.60;0.80;;;5.70;99.90;;;;;;5016275;28;20233;-77
2021/12/05 15:31:50;;;;;;;3.00;1.00;;;5.60;99.90;;;;;;5015655;28;20264;-78
2021/12/05 15:34:35;;;;;;;3.80;0.90;;;5.60;99.90;;;;;;5014651;28;20288;-78
2021/12/05 15:37:10;;;;;;;3.33;1.70;;;5.50;99.90;;;;;;5015377;28;20150;-76
2021/12/05 15:39:40;;;;;;;1.53;0.83;;;5.50;99.90;;;;;;5015710;28;20152;-78
2021/12/05 15:42:25;;;;;;;2.47;0.90;;;5.40;99.90;;;;;;5015357;28;20165;-75
2021/12/05 15:44:53;;;;;;;3.77;1.10;;;5.40;99.90;;;;;;5014115;28;20212;-79
2021/12/05 15:47:22;;;;;;;1.07;0.90;;;5.30;99.90;;;;;;5013836;28;20201;-76
2021/12/05 15:50:03;;;;;;;3.53;1.23;;;5.30;99.90;;;;;;5015238;28;20188;-76
2021/12/05 15:52:31;;;;;;;1.57;0.97;;;5.20;99.90;;;;;;5015234;28;20188;-76
2021/12/05 15:54:57;;;;;;;2.97;1.07;;;5.20;99.90;;;;;;5014145;28;20291;-76
2021/12/05 15:57:32;;;;;;;2.87;1.20;;;5.10;99.90;;;;;;5014957;28;20189;-76
2021/12/05 16:00:07;;;;;;;2.23;1.27;;;5.10;99.90;;;;;;5015315;28;20619;-76
2021/12/05 16:02:33;;;;;;;1.33;0.90;;;5.00;99.90;;;;;;5014776;28;20255;-76
2021/12/05 16:04:59;;;;;;;4.27;1.50;;;5.00;99.90;;;;;;5013686;28;20272;-76
2021/12/05 16:07:27;;;;;;;4.97;1.47;;;4.90;99.90;;;;;;5014783;28;20197;-76
2021/12/05 16:10:12;;;;;;;4.80;1.40;;;4.90;99.90;;;;;;5014779;28;20165;-76
2021/12/05 16:12:40;;;;;;;4.20;1.50;;;4.90;99.90;;;;;;5014841;28;20176;-76
2021/12/05 16:15:07;;;;;;;2.80;1.63;;;4.80;99.90;;;;;;5014618;28;20312;-76
2021/12/05 16:17:33;;;;;;;3.53;1.37;;;4.80;99.90;;;;;;5014571;28;20189;-77
2021/12/05 16:20:06;;;;;;;4.03;1.13;;;4.70;99.90;;;;;;5014899;28;20710;-77
2021/12/05 16:22:33;;;;;;;2.53;1.27;;;4.70;99.90;;;;;;5014549;28;20188;-76
2021/12/05 16:25:15;;;;;;;3.67;1.27;;;4.70;99.90;;;;;;5014543;28;20203;-77
2021/12/05 16:27:52;;;;;;;2.07;1.50;;;4.70;99.90;;;;;;5014452;28;20193;-77
2021/12/05 16:30:23;;;;;;;3.50;1.40;;;4.70;99.90;;;;;;5014486;28;20160;-76
2021/12/05 16:32:50;;;;;;;3.63;1.40;;;4.70;99.90;;;;;;5014415;28;20172;-76
2021/12/05 16:35:26;;;;;;;2.73;1.17;;;4.70;99.90;;;;;;5014289;28;20204;-77
2021/12/05 16:37:52;;;;;;;5.37;1.23;;;4.70;99.90;;;;;;5014492;28;20272;-78
2021/12/05 16:40:18;;;;;;;1.37;0.97;;;4.70;99.90;;;;;;5014563;28;20584;-77
2021/12/05 16:42:44;;;;;;;3.23;1.30;;;4.70;99.90;;;;;;5014358;28;20197;-77
2021/12/05 16:45:11;;;;;;;2.27;1.30;;;4.70;99.90;;;;;;5013182;28;20177;-78
2021/12/05 16:47:37;;;;;;;2.87;1.23;;;4.70;99.90;;;;;;5012683;28;20228;-75
2021/12/05 16:50:06;;;;;;;2.10;1.30;;;4.70;99.90;;;;;;5014529;28;20169;-77
2021/12/05 16:52:42;;;;;;;1.60;1.20;;;4.70;99.90;;;;;;5013441;28;20557;-78
2021/12/05 16:55:25;;;;;;;2.33;1.07;;;4.70;99.90;;;;;;5013872;28;20275;-78
2021/12/05 16:57:58;;;;;;;3.63;1.57;;;4.70;99.90;;;;;;5012313;28;20208;-77
2021/12/05 17:00:27;;;;;;;4.17;1.50;;;4.60;99.90;;;;;;5072149;23;20685;-77
2021/12/05 17:02:55;;;;;;;1.87;1.40;;;4.70;99.90;;;;;;5054210;28;20203;-77
2021/12/05 17:05:28;;;;;;;1.90;1.47;;;4.70;99.90;;;;;;5055884;28;20580;-76
2021/12/05 17:10:59;;;;;;;3.67;1.90;;;4.70;99.90;;;;;;5036095;28;20196;-75
2021/12/05 17:13:37;;;;;;;2.50;1.73;;;4.70;99.90;;;;;;5024812;28;20192;-76
2021/12/05 17:16:21;;;;;;;2.17;1.67;;;4.70;99.90;;;;;;5033315;28;20672;-76
2021/12/05 17:19:08;;;;;;;1.80;1.40;;;4.70;99.90;;;;;;5032059;28;20220;-76
2021/12/05 17:21:38;;;;;;;3.93;1.70;;;4.70;99.90;;;;;;5033309;28;20267;-76
2021/12/05 17:24:13;;;;;;;4.50;1.57;;;4.70;99.90;;;;;;5033455;28;20256;-76
2021/12/05 17:26:49;;;;;;;5.70;1.87;;;4.80;99.90;;;;;;5031742;28;20171;-76
2021/12/05 17:29:27;;;;;;;3.70;1.97;;;4.70;99.90;;;;;;5033264;28;20223;-75
2021/12/05 17:32:06;;;;;;;6.20;2.23;;;4.70;99.90;;;;;;5033506;28;20236;-76
2021/12/05 17:34:43;;;;;;;2.87;1.43;;;4.70;99.90;;;;;;5033104;28;20188;-76
2021/12/05 17:37:13;;;;;;;3.83;1.80;;;4.80;99.90;;;;;;5033069;28;20165;-76
2021/12/05 17:39:41;;;;;;;5.37;1.90;;;4.70;99.90;;;;;;5033012;28;20299;-76
2021/12/05 17:42:11;;;;;;;4.83;1.60;;;4.80;99.90;;;;;;5031859;28;20168;-76
2021/12/05 17:44:38;;;;;;;2.47;1.70;;;4.70;99.90;;;;;;5033509;28;20223;-76
2021/12/05 17:47:07;;;;;;;4.20;2.27;;;4.70;99.90;;;;;;5031477;28;20179;-76
2021/12/05 17:49:35;;;;;;;4.00;2.17;;;4.70;99.90;;;;;;5031774;28;20230;-77
2021/12/05 17:52:02;;;;;;;2.43;2.10;;;4.70;99.90;;;;;;5032654;28;20218;-77
2021/12/05 17:54:35;;;;;;;4.40;2.00;;;4.70;99.90;;;;;;5032853;28;20287;-77
2021/12/05 17:57:09;;;;;;;2.13;1.53;;;4.70;99.90;;;;;;5034215;28;20176;-79
2021/12/05 17:59:55;;;;;;;2.37;1.77;;;4.70;99.90;;;;;;5040650;28;20207;-78
2021/12/05 18:02:42;;;;;;;2.17;1.57;;;4.70;99.90;;;;;;5040264;28;20144;-79
2021/12/05 18:05:26;;;;;;;1.90;1.60;;;4.70;99.90;;;;;;5038807;28;20160;-79
2021/12/05 18:07:55;;;;;;;4.53;1.80;;;4.60;99.90;;;;;;5040002;28;20172;-78
2021/12/05 18:10:25;;;;;;;2.87;2.03;;;4.60;99.90;;;;;;5039713;28;20188;-79
2021/12/05 18:12:53;;;;;;;2.03;1.57;;;4.60;99.90;;;;;;5039376;28;20155;-78
2021/12/05 18:15:26;;;;;;;4.53;2.00;;;4.60;99.90;;;;;;5038743;28;20200;-79
2021/12/05 18:17:53;;;;;;;2.10;1.67;;;4.60;99.90;;;;;;5039476;28;20255;-78
2021/12/05 18:20:25;;;;;;;1.67;1.40;;;4.60;99.90;;;;;;5042696;28;20196;-78
2021/12/05 18:23:02;;;;;;;4.17;2.17;;;4.60;99.90;;;;;;5042687;28;20622;-77
2021/12/05 18:25:28;;;;;;;3.97;2.17;;;4.60;99.90;;;;;;5041678;28;20179;-77
2021/12/05 18:27:55;;;;;;;4.17;1.93;;;4.60;99.90;;;;;;5039954;28;20204;-80
2021/12/05 18:30:24;;;;;;;3.10;1.90;;;4.60;99.90;;;;;;5040703;28;20200;-78